Time;durP1;ratioP1;P1;durP2;ratioP2;P2;SDS_P1;SDS_P2;PMS_P1;PMS_P2;Temp;Humidity;BMP_temperature;BMP_pressure;BME280_temperature;BME280_humidity;BME280_pressure;Samples;Min_cycle;Max_cycle;Signal;HPM_P1;HPM_P2
2021/09/23 00:00:46;;;;;;;17.00;8.87;;;12.40;99.90;;;;;;5075485;28;20307;-76
2021/09/23 00:03:20;;;;;;;18.30;9.50;;;12.40;99.90;;;;;;5061030;28;20202;-77
2021/09/23 00:05:47;;;;;;;17.47;9.30;;;12.50;99.90;;;;;;5075339;28;20199;-76
2021/09/23 00:08:14;;;;;;;21.60;9.03;;;12.50;99.90;;;;;;5075125;28;20291;-77
2021/09/23 00:10:42;;;;;;;14.53;9.07;;;12.40;99.90;;;;;;5074865;28;20200;-76
2021/09/23 00:13:11;;;;;;;17.30;9.53;;;12.40;99.90;;;;;;5074843;28;20237;-77
2021/09/23 00:15:39;;;;;;;14.67;9.50;;;12.30;99.90;;;;;;5075157;28;20584;-77
2021/09/23 00:18:08;;;;;;;16.10;9.67;;;12.40;99.90;;;;;;5074428;28;20227;-77
2021/09/23 00:20:38;;;;;;;17.00;9.37;;;12.30;99.90;;;;;;5075224;28;20209;-77
2021/09/23 00:23:07;;;;;;;19.47;9.67;;;12.30;99.90;;;;;;5074864;28;20213;-77
2021/09/23 00:25:34;;;;;;;20.33;9.37;;;12.30;99.90;;;;;;5075081;28;20206;-77
2021/09/23 00:28:02;;;;;;;17.30;9.77;;;12.30;99.90;;;;;;5075128;28;20287;-77
2021/09/23 00:30:31;;;;;;;17.00;10.67;;;12.20;99.90;;;;;;5074717;28;20209;-77
2021/09/23 00:32:58;;;;;;;18.50;9.90;;;12.20;99.90;;;;;;5074833;28;20306;-77
2021/09/23 00:35:25;;;;;;;18.30;10.93;;;12.20;99.90;;;;;;5074780;28;20208;-77
2021/09/23 00:37:52;;;;;;;22.03;11.30;;;12.20;99.90;;;;;;5074641;28;20222;-77
2021/09/23 00:40:20;;;;;;;23.03;11.70;;;12.20;99.90;;;;;;5074476;28;20204;-77
2021/09/23 00:42:48;;;;;;;23.97;11.30;;;12.20;99.90;;;;;;5074353;28;20661;-76
2021/09/23 00:45:17;;;;;;;21.33;11.50;;;12.20;99.90;;;;;;5074253;28;20199;-77
2021/09/23 00:47:45;;;;;;;22.33;11.33;;;12.20;99.90;;;;;;5073946;28;20198;-77
2021/09/23 00:50:13;;;;;;;23.57;11.13;;;12.20;99.90;;;;;;5074155;28;20206;-77
2021/09/23 00:52:41;;;;;;;21.27;10.77;;;12.30;99.90;;;;;;5074048;28;20206;-77
2021/09/23 00:55:10;;;;;;;18.63;9.80;;;12.30;99.90;;;;;;5074341;28;20286;-77
2021/09/23 00:57:37;;;;;;;17.00;10.03;;;12.30;99.90;;;;;;5074030;28;20216;-77
2021/09/23 01:00:07;;;;;;;22.53;11.13;;;12.30;99.90;;;;;;5073960;28;20227;-77
2021/09/23 01:02:34;;;;;;;20.87;10.47;;;12.30;99.90;;;;;;5073876;28;20207;-77
2021/09/23 01:05:02;;;;;;;22.23;10.43;;;12.20;99.90;;;;;;5074100;28;20231;-77
2021/09/23 01:07:29;;;;;;;20.97;11.33;;;12.10;99.90;;;;;;5073759;28;20656;-77
2021/09/23 01:09:56;;;;;;;16.73;10.10;;;12.10;99.90;;;;;;5073971;28;20289;-77
2021/09/23 01:12:25;;;;;;;20.97;10.13;;;12.10;99.90;;;;;;5073954;28;20253;-77
2021/09/23 01:14:53;;;;;;;19.53;10.30;;;12.10;99.90;;;;;;5072713;28;20295;-77
2021/09/23 01:17:20;;;;;;;22.83;10.43;;;12.10;99.90;;;;;;5073454;28;20227;-77
2021/09/23 01:19:47;;;;;;;23.63;11.70;;;12.00;99.90;;;;;;5073586;28;20210;-77
2021/09/23 01:22:16;;;;;;;24.47;12.63;;;11.90;99.90;;;;;;5073830;28;20559;-76
2021/09/23 01:24:44;;;;;;;23.03;12.43;;;11.90;99.90;;;;;;5073447;28;20245;-76
2021/09/23 01:27:11;;;;;;;26.33;11.90;;;11.80;99.90;;;;;;5073766;28;20260;-76
2021/09/23 01:29:39;;;;;;;22.27;11.87;;;11.80;99.90;;;;;;5073380;28;20209;-77
2021/09/23 01:32:08;;;;;;;20.63;12.07;;;11.80;99.90;;;;;;5073077;28;20196;-76
2021/09/23 01:34:36;;;;;;;22.63;11.23;;;11.70;99.90;;;;;;5073617;28;20204;-77
2021/09/23 01:37:03;;;;;;;22.80;11.00;;;11.80;99.90;;;;;;5073173;28;20212;-77
2021/09/23 01:39:31;;;;;;;20.00;11.43;;;11.90;99.90;;;;;;5073188;28;20205;-77
2021/09/23 01:41:58;;;;;;;20.10;11.10;;;11.90;99.90;;;;;;5072866;28;20298;-77
2021/09/23 01:44:25;;;;;;;17.80;10.43;;;11.90;99.90;;;;;;5070521;28;20213;-77
2021/09/23 01:46:53;;;;;;;19.40;10.97;;;11.90;99.90;;;;;;5070422;28;20203;-77
2021/09/23 01:49:19;;;;;;;19.37;11.30;;;11.90;99.90;;;;;;5072896;28;20578;-77
2021/09/23 01:51:46;;;;;;;22.73;11.10;;;12.00;99.90;;;;;;5073326;28;20624;-77
2021/09/23 01:54:14;;;;;;;19.03;10.53;;;11.90;99.90;;;;;;5074306;28;20203;-77
2021/09/23 01:56:42;;;;;;;18.13;10.77;;;11.90;99.90;;;;;;5087839;28;20198;-77
2021/09/23 01:59:09;;;;;;;19.60;10.47;;;11.90;99.90;;;;;;5078369;28;20243;-77
2021/09/23 02:01:38;;;;;;;20.23;10.83;;;11.90;99.90;;;;;;5073176;28;20213;-77
2021/09/23 02:04:05;;;;;;;19.10;10.87;;;11.80;99.90;;;;;;5073303;28;20216;-76
2021/09/23 02:06:32;;;;;;;19.83;11.60;;;11.70;99.90;;;;;;5072693;28;20204;-77
2021/09/23 02:08:58;;;;;;;18.67;11.10;;;11.70;99.90;;;;;;5073241;28;20205;-77
2021/09/23 02:11:25;;;;;;;21.83;10.57;;;11.80;99.90;;;;;;5072604;28;20203;-77
2021/09/23 02:13:54;;;;;;;23.37;11.30;;;11.80;99.90;;;;;;5072666;28;20203;-77
2021/09/23 02:16:21;;;;;;;19.90;11.07;;;11.90;99.90;;;;;;5072540;28;20202;-77
2021/09/23 02:18:48;;;;;;;19.97;11.03;;;11.90;99.90;;;;;;5063905;28;20306;-77
2021/09/23 02:21:15;;;;;;;22.37;11.53;;;12.00;99.90;;;;;;5072674;28;20290;-77
2021/09/23 02:23:41;;;;;;;22.60;12.07;;;11.90;99.90;;;;;;5072980;28;20203;-77
2021/09/23 02:26:08;;;;;;;24.27;11.53;;;11.90;99.90;;;;;;5072649;28;20199;-77
2021/09/23 02:28:36;;;;;;;19.80;11.13;;;11.80;99.90;;;;;;5073062;28;20206;-77
2021/09/23 02:31:05;;;;;;;26.93;11.70;;;11.90;99.90;;;;;;5072739;28;20210;-77
2021/09/23 02:33:32;;;;;;;24.37;11.60;;;11.80;99.90;;;;;;5072399;28;20655;-77
2021/09/23 02:36:00;;;;;;;22.73;12.20;;;11.80;99.90;;;;;;5072903;28;20211;-77
2021/09/23 02:38:26;;;;;;;21.53;12.03;;;11.80;99.90;;;;;;5072285;28;20284;-77
2021/09/23 02:40:55;;;;;;;23.03;12.90;;;11.80;99.90;;;;;;5072586;28;20578;-77
2021/09/23 02:43:22;;;;;;;25.03;12.47;;;11.80;99.90;;;;;;5072342;28;20211;-76
2021/09/23 02:45:49;;;;;;;24.77;13.30;;;11.80;99.90;;;;;;5072501;28;20205;-77
2021/09/23 02:48:17;;;;;;;23.77;13.20;;;11.70;99.90;;;;;;5072264;28;20294;-77
2021/09/23 02:50:44;;;;;;;26.93;13.70;;;11.70;99.90;;;;;;5072469;28;20234;-77
2021/09/23 02:53:11;;;;;;;30.73;13.10;;;11.70;99.90;;;;;;5072480;28;20298;-77
2021/09/23 02:55:38;;;;;;;24.63;12.83;;;11.70;99.90;;;;;;5072482;28;20204;-77
2021/09/23 02:58:05;;;;;;;26.03;13.13;;;11.70;99.90;;;;;;5072199;28;20236;-77
2021/09/23 03:00:32;;;;;;;25.87;12.97;;;11.80;99.90;;;;;;5072278;28;20209;-77
2021/09/23 03:02:59;;;;;;;24.53;12.00;;;11.80;99.90;;;;;;5072750;28;20213;-77
2021/09/23 03:05:27;;;;;;;21.37;12.43;;;11.80;99.90;;;;;;5072135;28;20199;-77
2021/09/23 03:07:54;;;;;;;21.30;12.23;;;11.70;99.90;;;;;;5072438;28;20280;-77
2021/09/23 03:10:20;;;;;;;23.90;12.23;;;11.70;99.90;;;;;;5072409;28;20305;-77
2021/09/23 03:12:47;;;;;;;22.67;12.20;;;11.50;99.90;;;;;;5072212;28;20206;-77
2021/09/23 03:15:14;;;;;;;24.93;12.63;;;11.50;99.90;;;;;;5072143;28;20701;-77
2021/09/23 03:17:41;;;;;;;26.50;12.50;;;11.50;99.90;;;;;;5071835;28;20223;-77
2021/09/23 03:20:09;;;;;;;26.77;12.70;;;11.40;99.90;;;;;;5072263;28;20294;-77
2021/09/23 03:22:37;;;;;;;29.23;13.80;;;11.40;99.90;;;;;;5071960;28;20303;-77
2021/09/23 03:25:04;;;;;;;25.43;12.93;;;11.40;99.90;;;;;;5072120;28;20211;-77
2021/09/23 03:27:31;;;;;;;21.80;12.43;;;11.40;99.90;;;;;;5071859;28;20664;-76
2021/09/23 03:29:58;;;;;;;27.57;12.30;;;11.40;99.90;;;;;;5072401;28;20289;-77
2021/09/23 03:32:25;;;;;;;27.90;12.63;;;11.30;99.90;;;;;;5072114;28;20245;-77
2021/09/23 03:34:52;;;;;;;23.13;12.50;;;11.30;99.90;;;;;;5072206;28;20309;-77
2021/09/23 03:37:19;;;;;;;23.57;12.70;;;11.20;99.90;;;;;;5071947;28;20261;-77
2021/09/23 03:39:47;;;;;;;26.03;13.13;;;11.30;99.90;;;;;;5074940;28;20215;-77
2021/09/23 03:42:14;;;;;;;29.07;13.50;;;11.30;99.90;;;;;;5075707;28;20301;-77
2021/09/23 03:44:40;;;;;;;28.07;14.57;;;11.20;99.90;;;;;;5075535;28;20206;-77
2021/09/23 03:47:07;;;;;;;22.23;12.73;;;11.20;99.90;;;;;;5075486;28;20238;-77
2021/09/23 03:49:34;;;;;;;27.20;13.80;;;11.10;99.90;;;;;;5075153;28;20206;-77
2021/09/23 03:52:01;;;;;;;31.63;14.27;;;11.20;99.90;;;;;;5075518;28;20228;-77
2021/09/23 03:54:28;;;;;;;25.37;13.70;;;11.20;99.90;;;;;;5075334;28;20656;-77
2021/09/23 03:56:56;;;;;;;27.67;14.07;;;11.20;99.90;;;;;;5075349;28;20563;-77
2021/09/23 03:59:23;;;;;;;27.77;14.03;;;11.20;99.90;;;;;;5075215;28;20325;-77
2021/09/23 04:01:50;;;;;;;25.87;14.07;;;11.20;99.90;;;;;;5075263;28;20202;-77
2021/09/23 04:04:17;;;;;;;27.63;14.77;;;11.30;99.90;;;;;;5075056;28;20249;-77
2021/09/23 04:06:44;;;;;;;31.00;14.73;;;11.30;99.90;;;;;;5075066;28;20216;-77
2021/09/23 04:09:11;;;;;;;33.70;15.97;;;11.30;99.90;;;;;;5075100;28;20294;-77
2021/09/23 04:11:38;;;;;;;29.03;15.53;;;11.30;99.90;;;;;;5074601;28;20238;-77
2021/09/23 04:14:07;;;;;;;30.73;15.97;;;11.20;99.90;;;;;;5074893;28;20287;-77
2021/09/23 04:16:34;;;;;;;31.33;16.17;;;11.20;99.90;;;;;;5074772;28;20216;-77
2021/09/23 04:19:01;;;;;;;30.63;16.43;;;11.20;99.90;;;;;;5074160;28;20305;-77
2021/09/23 04:21:28;;;;;;;30.13;15.73;;;11.20;99.90;;;;;;5074319;28;20658;-77
2021/09/23 04:23:55;;;;;;;33.37;16.00;;;11.20;99.90;;;;;;5072071;28;20569;-77
2021/09/23 04:26:22;;;;;;;34.27;17.23;;;11.30;99.90;;;;;;5071393;28;20568;-77
2021/09/23 04:28:49;;;;;;;31.87;15.70;;;11.30;99.90;;;;;;5066481;28;20571;-77
2021/09/23 04:31:17;;;;;;;32.73;16.07;;;11.40;99.90;;;;;;5074325;28;20293;-77
2021/09/23 04:33:44;;;;;;;31.93;16.60;;;11.30;99.90;;;;;;5074362;28;20218;-77
2021/09/23 04:36:11;;;;;;;32.47;17.17;;;11.30;99.90;;;;;;5074213;28;20302;-77
2021/09/23 04:38:38;;;;;;;27.67;16.27;;;11.30;99.90;;;;;;5074458;28;20306;-77
2021/09/23 04:41:05;;;;;;;33.87;17.60;;;11.30;99.90;;;;;;5074384;28;20207;-77
2021/09/23 04:43:32;;;;;;;29.53;16.50;;;11.30;99.90;;;;;;5074306;28;20260;-77
2021/09/23 04:45:58;;;;;;;34.13;17.83;;;11.40;99.90;;;;;;5060325;28;20199;-77
2021/09/23 04:48:27;;;;;;;31.17;16.63;;;11.40;99.90;;;;;;5061710;28;20239;-77
2021/09/23 04:50:53;;;;;;;33.47;17.43;;;11.40;99.90;;;;;;5061966;28;20693;-77
2021/09/23 04:53:20;;;;;;;32.50;18.17;;;11.50;99.90;;;;;;5070908;28;20216;-77
2021/09/23 04:55:47;;;;;;;34.30;17.73;;;11.40;99.90;;;;;;5070953;28;20203;-77
2021/09/23 04:58:14;;;;;;;30.00;16.60;;;11.40;99.90;;;;;;5068188;28;20220;-77
2021/09/23 05:00:41;;;;;;;35.23;17.93;;;11.40;99.90;;;;;;5072468;28;20216;-77
2021/09/23 05:03:10;;;;;;;32.50;17.77;;;11.40;99.90;;;;;;5070751;28;20258;-79
2021/09/23 05:05:39;;;;;;;29.03;17.43;;;11.50;99.90;;;;;;5062129;28;20210;-77
2021/09/23 05:08:07;;;;;;;34.07;17.00;;;11.50;99.90;;;;;;5064911;28;20203;-77
2021/09/23 05:10:35;;;;;;;34.40;17.50;;;11.60;99.90;;;;;;5067003;28;20734;-77
2021/09/23 05:13:02;;;;;;;29.67;17.10;;;11.60;99.90;;;;;;5060358;28;20287;-78
2021/09/23 05:15:29;;;;;;;35.10;17.47;;;11.70;99.90;;;;;;5066584;28;20542;-78
2021/09/23 05:17:56;;;;;;;35.87;18.17;;;11.70;99.90;;;;;;5052148;28;20200;-76
2021/09/23 05:20:23;;;;;;;38.90;17.87;;;11.70;99.90;;;;;;5067619;28;20226;-80
2021/09/23 05:22:51;;;;;;;30.73;16.70;;;11.70;99.90;;;;;;5067031;28;20289;-80
2021/09/23 05:25:18;;;;;;;34.20;18.60;;;11.70;99.90;;;;;;5069249;28;20286;-80
2021/09/23 05:27:45;;;;;;;28.53;17.00;;;11.70;99.90;;;;;;5070351;28;20208;-81
2021/09/23 05:30:13;;;;;;;34.30;17.80;;;11.70;99.90;;;;;;5070394;28;20202;-80
2021/09/23 05:32:40;;;;;;;31.77;18.37;;;11.70;99.90;;;;;;5068773;28;20215;-80
2021/09/23 05:35:08;;;;;;;36.10;18.13;;;11.80;99.90;;;;;;5065382;28;20287;-81
2021/09/23 05:37:35;;;;;;;31.60;18.60;;;11.80;99.90;;;;;;5062218;28;20713;-81
2021/09/23 05:40:05;;;;;;;33.23;18.53;;;11.70;99.90;;;;;;5071951;28;20251;-80
2021/09/23 05:42:32;;;;;;;31.57;18.20;;;11.80;99.90;;;;;;5071997;28;20229;-79
2021/09/23 05:44:59;;;;;;;38.90;20.30;;;11.90;99.90;;;;;;5070586;28;20223;-80
2021/09/23 05:47:26;;;;;;;39.83;18.67;;;11.90;99.90;;;;;;5069929;28;20237;-80
2021/09/23 05:49:53;;;;;;;30.27;17.07;;;11.90;99.90;;;;;;5071303;28;20656;-80
2021/09/23 05:52:20;;;;;;;33.63;17.03;;;11.90;99.90;;;;;;5071473;28;20730;-79
2021/09/23 05:54:47;;;;;;;34.17;17.47;;;11.90;99.90;;;;;;5072697;28;20207;-79
2021/09/23 05:57:20;;;;;;;34.03;17.20;;;12.00;99.90;;;;;;5072291;28;20211;-80
2021/09/23 05:59:47;;;;;;;29.70;17.43;;;11.90;99.90;;;;;;5072907;28;20611;-80
2021/09/23 06:02:15;;;;;;;34.20;17.97;;;11.80;99.90;;;;;;5071364;28;20679;-80
2021/09/23 06:04:41;;;;;;;36.70;17.43;;;11.80;99.90;;;;;;5071933;28;20236;-80
2021/09/23 06:07:08;;;;;;;34.57;17.80;;;11.90;99.90;;;;;;5072688;28;20210;-79
2021/09/23 06:09:35;;;;;;;34.77;17.63;;;11.90;99.90;;;;;;5072457;28;20743;-79
2021/09/23 06:12:02;;;;;;;31.17;17.43;;;12.00;99.90;;;;;;5072731;28;20683;-80
2021/09/23 06:14:31;;;;;;;32.90;18.60;;;11.90;99.90;;;;;;5072490;28;20203;-80
2021/09/23 06:16:58;;;;;;;33.43;18.30;;;12.00;99.90;;;;;;5072827;28;20679;-80
2021/09/23 06:19:25;;;;;;;34.33;18.83;;;12.00;99.90;;;;;;5073044;28;20223;-79
2021/09/23 06:21:52;;;;;;;34.10;18.87;;;12.10;99.90;;;;;;5072964;28;20209;-81
2021/09/23 06:24:19;;;;;;;38.33;18.63;;;12.20;99.90;;;;;;5073065;28;20203;-80
2021/09/23 06:26:46;;;;;;;38.77;20.33;;;12.20;99.90;;;;;;5072977;28;20218;-80
2021/09/23 06:29:13;;;;;;;35.33;18.93;;;12.30;99.90;;;;;;5073121;28;20282;-80
2021/09/23 06:31:42;;;;;;;33.27;18.20;;;12.30;99.90;;;;;;5073037;28;20208;-80
2021/09/23 06:34:09;;;;;;;36.80;19.60;;;12.30;99.90;;;;;;5072753;28;20290;-80
2021/09/23 06:36:36;;;;;;;38.87;19.83;;;12.40;99.90;;;;;;5072456;28;20205;-80
2021/09/23 06:39:04;;;;;;;42.50;21.90;;;12.50;99.90;;;;;;5072367;28;20231;-81
2021/09/23 06:41:35;;;;;;;44.50;22.77;;;12.50;99.90;;;;;;5065276;28;20203;-82
2021/09/23 06:44:03;;;;;;;39.77;21.23;;;12.70;99.90;;;;;;5072081;28;20213;-80
2021/09/23 06:46:30;;;;;;;37.60;20.33;;;12.80;99.90;;;;;;5072706;28;20253;-80
2021/09/23 06:48:58;;;;;;;43.90;22.03;;;12.90;99.90;;;;;;5072856;28;20195;-81
2021/09/23 06:51:26;;;;;;;41.93;21.47;;;12.90;99.90;;;;;;5072975;28;20200;-82
2021/09/23 06:53:54;;;;;;;40.33;20.60;;;12.90;99.90;;;;;;5072896;28;20660;-82
2021/09/23 06:56:21;;;;;;;38.53;21.47;;;13.00;99.90;;;;;;5062531;28;20207;-81
2021/09/23 06:58:48;;;;;;;35.63;20.03;;;13.00;99.90;;;;;;5072347;28;20225;-82
2021/09/23 07:01:15;;;;;;;38.87;21.20;;;13.10;99.90;;;;;;5072731;28;20204;-81
2021/09/23 07:03:42;;;;;;;37.90;21.03;;;13.20;99.90;;;;;;5072145;28;20680;-81
2021/09/23 07:06:10;;;;;;;39.83;22.00;;;13.20;99.90;;;;;;5072026;28;20200;-81
2021/09/23 07:08:37;;;;;;;43.17;21.83;;;13.30;99.90;;;;;;5072578;28;20213;-81
2021/09/23 07:11:04;;;;;;;43.63;22.83;;;13.40;99.90;;;;;;5072696;28;20390;-81
2021/09/23 07:13:31;;;;;;;49.63;22.37;;;13.50;99.90;;;;;;5073810;28;20199;-82
2021/09/23 07:15:59;;;;;;;46.00;22.83;;;13.70;99.90;;;;;;5076090;28;20204;-81
2021/09/23 07:18:26;;;;;;;40.73;22.30;;;13.70;99.90;;;;;;5076500;28;20227;-82
2021/09/23 07:20:53;;;;;;;41.53;22.80;;;13.70;99.90;;;;;;5076125;28;20233;-82
2021/09/23 07:23:21;;;;;;;47.47;23.30;;;13.90;99.90;;;;;;5075962;28;20230;-81
2021/09/23 07:25:48;;;;;;;42.53;22.63;;;13.90;99.90;;;;;;5075823;28;20657;-82
2021/09/23 07:28:16;;;;;;;44.30;22.53;;;14.00;99.90;;;;;;5076112;28;20209;-82
2021/09/23 07:30:43;;;;;;;49.23;23.97;;;14.00;99.90;;;;;;5075973;28;20196;-82
2021/09/23 07:33:10;;;;;;;46.27;23.87;;;14.10;99.90;;;;;;5076119;28;20238;-82
2021/09/23 07:35:37;;;;;;;43.43;24.27;;;14.30;99.90;;;;;;5075957;28;20203;-82
2021/09/23 07:38:05;;;;;;;41.83;23.90;;;14.30;99.90;;;;;;5075985;28;20541;-82
2021/09/23 07:40:33;;;;;;;43.90;24.30;;;14.50;99.90;;;;;;5075828;28;20235;-81
2021/09/23 07:43:01;;;;;;;51.10;25.00;;;14.50;99.90;;;;;;5073600;28;20233;-82
2021/09/23 07:45:28;;;;;;;47.33;24.47;;;14.60;99.90;;;;;;5075468;28;20291;-82
2021/09/23 07:47:56;;;;;;;48.17;25.67;;;14.60;99.90;;;;;;5074609;28;20268;-82
2021/09/23 07:50:23;;;;;;;48.97;25.87;;;14.70;99.90;;;;;;5075931;28;20282;-82
2021/09/23 07:52:50;;;;;;;42.67;24.70;;;14.80;99.90;;;;;;5075996;28;20202;-81
2021/09/23 07:55:16;;;;;;;44.77;25.50;;;14.90;99.90;;;;;;5075915;28;20535;-82
2021/09/23 07:57:45;;;;;;;46.03;26.17;;;15.00;99.90;;;;;;5075444;28;20731;-81
2021/09/23 08:00:13;;;;;;;46.67;24.43;;;15.00;99.90;;;;;;5075423;28;20577;-81
2021/09/23 08:02:39;;;;;;;48.13;26.57;;;15.10;99.90;;;;;;5075666;28;20195;-82
2021/09/23 08:05:07;;;;;;;46.00;25.57;;;15.20;99.90;;;;;;5075674;28;20199;-81
2021/09/23 08:07:34;;;;;;;47.30;24.83;;;15.30;99.90;;;;;;5075655;28;20688;-81
2021/09/23 08:10:01;;;;;;;45.90;25.03;;;15.40;99.90;;;;;;5075445;28;20290;-82
2021/09/23 08:12:28;;;;;;;45.87;24.40;;;15.50;99.90;;;;;;5075135;28;20664;-82
2021/09/23 08:14:56;;;;;;;42.80;24.53;;;15.60;99.90;;;;;;5075468;28;20203;-81
2021/09/23 08:17:23;;;;;;;41.33;24.07;;;15.70;99.90;;;;;;5075624;28;20203;-81
2021/09/23 08:19:51;;;;;;;38.83;22.20;;;15.90;99.90;;;;;;5075311;28;20223;-81
2021/09/23 08:22:18;;;;;;;38.60;22.80;;;16.00;99.90;;;;;;5075108;28;20294;-81
2021/09/23 08:24:45;;;;;;;41.80;22.73;;;16.10;99.90;;;;;;5074855;28;20295;-81
2021/09/23 08:27:12;;;;;;;43.30;22.80;;;16.10;99.90;;;;;;5075238;28;20751;-80
2021/09/23 08:29:39;;;;;;;37.67;21.20;;;16.20;99.90;;;;;;5075176;28;20660;-81
2021/09/23 08:32:08;;;;;;;42.43;23.63;;;16.20;99.90;;;;;;5075146;28;20203;-81
2021/09/23 08:34:34;;;;;;;38.53;22.80;;;16.30;99.90;;;;;;5075002;28;20199;-82
2021/09/23 08:37:03;;;;;;;41.00;22.13;;;16.50;99.90;;;;;;5075365;28;20200;-81
2021/09/23 08:39:30;;;;;;;41.97;23.37;;;16.60;99.90;;;;;;5074772;28;20227;-80
2021/09/23 08:41:57;;;;;;;37.97;22.97;;;16.70;99.90;;;;;;5074940;28;20565;-80
2021/09/23 08:44:24;;;;;;;39.90;22.43;;;16.90;99.90;;;;;;5074667;28;20209;-81
2021/09/23 08:46:51;;;;;;;40.73;24.10;;;17.00;99.90;;;;;;5074821;28;20203;-81
2021/09/23 08:49:19;;;;;;;40.10;23.77;;;17.00;99.90;;;;;;5075352;28;20630;-81
2021/09/23 08:51:46;;;;;;;40.77;22.50;;;17.10;99.90;;;;;;5074906;28;20199;-81
2021/09/23 08:54:13;;;;;;;41.53;22.90;;;17.20;99.90;;;;;;5074506;28;20286;-81
2021/09/23 08:56:40;;;;;;;36.27;21.87;;;17.30;99.90;;;;;;5074852;28;20203;-83
2021/09/23 08:59:07;;;;;;;38.17;23.27;;;17.40;99.90;;;;;;5074933;28;20203;-81
2021/09/23 09:01:40;;;;;;;36.63;23.13;;;17.70;99.90;;;;;;5074547;28;20202;-81
2021/09/23 09:04:08;;;;;;;36.97;21.67;;;17.70;99.90;;;;;;5074470;28;20537;-81
2021/09/23 09:06:36;;;;;;;39.83;22.30;;;17.60;99.90;;;;;;5074332;28;20203;-80
2021/09/23 09:09:04;;;;;;;36.93;22.70;;;17.60;99.90;;;;;;5074311;28;20203;-82
2021/09/23 09:11:31;;;;;;;41.43;22.70;;;17.60;99.90;;;;;;5074343;28;20196;-81
2021/09/23 09:13:58;;;;;;;35.33;21.97;;;17.60;99.90;;;;;;5074370;28;20199;-81
2021/09/23 09:16:27;;;;;;;33.80;20.00;;;17.70;99.90;;;;;;5074065;28;20614;-82
2021/09/23 09:18:57;;;;;;;31.50;18.90;;;18.00;99.90;;;;;;5073987;28;20206;-81
2021/09/23 09:21:26;;;;;;;31.50;19.37;;;18.20;99.90;;;;;;5074141;28;20238;-81
2021/09/23 09:23:56;;;;;;;28.33;19.77;;;18.20;99.90;;;;;;5073866;28;20672;-81
2021/09/23 09:26:29;;;;;;;26.00;17.33;;;18.20;99.90;;;;;;5074076;28;20208;-81
2021/09/23 09:28:58;;;;;;;32.50;18.70;;;18.20;99.90;;;;;;5074416;28;20210;-81
2021/09/23 09:31:26;;;;;;;32.67;17.23;;;18.30;99.90;;;;;;5073940;28;20203;-80
2021/09/23 09:33:54;;;;;;;28.93;16.83;;;18.30;99.90;;;;;;5073884;28;20217;-82
2021/09/23 09:36:28;;;;;;;29.33;18.27;;;18.30;99.90;;;;;;5073126;28;20199;-81
2021/09/23 09:38:59;;;;;;;29.13;17.43;;;18.40;99.90;;;;;;5074003;28;20203;-81
2021/09/23 09:41:28;;;;;;;27.47;17.17;;;18.40;99.90;;;;;;5073483;28;20258;-81
2021/09/23 09:43:56;;;;;;;22.80;14.90;;;18.40;99.90;;;;;;5073501;28;20206;-81
2021/09/23 09:46:25;;;;;;;28.80;15.43;;;18.30;99.90;;;;;;5073990;28;20286;-82
2021/09/23 09:48:53;;;;;;;23.47;13.97;;;18.50;99.90;;;;;;5073981;28;20234;-81
2021/09/23 09:51:23;;;;;;;20.67;14.83;;;18.50;99.90;;;;;;5073726;28;20196;-82
2021/09/23 09:54:04;;;;;;;25.67;15.87;;;18.40;99.90;;;;;;5085238;28;20199;-82
2021/09/23 09:56:37;;;;;;;30.00;16.30;;;18.40;99.90;;;;;;5085238;28;20204;-81
2021/09/23 09:59:06;;;;;;;26.50;16.37;;;18.40;99.90;;;;;;5080982;28;20571;-84
2021/09/23 10:01:34;;;;;;;26.37;16.23;;;18.50;99.90;;;;;;5084024;28;20318;-83
2021/09/23 10:04:01;;;;;;;27.73;16.67;;;18.40;99.90;;;;;;5082363;28;20241;-83
2021/09/23 10:06:29;;;;;;;28.83;16.20;;;18.50;99.90;;;;;;5081509;28;20200;-81
2021/09/23 10:08:56;;;;;;;25.87;15.30;;;18.70;99.90;;;;;;5082291;28;20199;-82
2021/09/23 10:11:26;;;;;;;25.03;15.53;;;18.90;99.90;;;;;;5078194;28;20205;-82
2021/09/23 10:13:54;;;;;;;25.03;15.03;;;19.50;99.90;;;;;;5079259;28;20199;-84
2021/09/23 10:16:22;;;;;;;23.20;13.67;;;20.60;99.90;;;;;;5073505;28;20203;-82
2021/09/23 10:18:49;;;;;;;25.33;15.37;;;21.10;99.90;;;;;;5073599;28;20572;-82
2021/09/23 10:21:16;;;;;;;23.60;14.57;;;21.70;99.90;;;;;;5073472;28;20329;-83
2021/09/23 10:23:44;;;;;;;24.77;14.30;;;22.30;99.90;;;;;;5073291;28;20199;-82
2021/09/23 10:26:14;;;;;;;21.73;14.17;;;22.90;99.90;;;;;;5073259;28;20546;-82
2021/09/23 10:28:46;;;;;;;22.13;14.50;;;23.30;99.90;;;;;;5073228;28;20329;-82
2021/09/23 10:31:16;;;;;;;23.60;15.25;;;24.10;99.90;;;;;;5073108;28;20196;-82
2021/09/23 10:33:43;;;;;;;26.20;16.02;;;24.70;99.90;;;;;;5073167;28;20302;-82
2021/09/23 10:36:11;;;;;;;25.73;14.70;;;24.10;99.90;;;;;;5072824;28;20290;-82
2021/09/23 10:38:40;;;;;;;23.88;14.75;;;24.30;99.90;;;;;;5073303;28;20286;-82
2021/09/23 10:41:07;;;;;;;23.13;15.27;;;24.60;99.90;;;;;;5072924;28;20223;-83
2021/09/23 10:43:34;;;;;;;22.05;14.48;;;24.60;99.90;;;;;;5072851;28;20668;-82
2021/09/23 10:46:03;;;;;;;22.13;14.88;;;24.20;99.90;;;;;;5072759;28;20206;-82
2021/09/23 10:48:35;;;;;;;20.92;13.10;;;23.90;99.90;;;;;;5075707;28;20294;-83
2021/09/23 10:51:03;;;;;;;20.65;12.80;;;23.60;99.90;;;;;;5077082;28;20199;-82
2021/09/23 10:53:31;;;;;;;19.65;11.55;;;23.40;99.90;;;;;;5076796;28;20213;-83
2021/09/23 10:56:01;;;;;;;18.23;12.13;;;23.50;99.90;;;;;;5076678;28;20676;-82
2021/09/23 10:58:28;;;;;;;17.42;11.70;;;23.60;99.90;;;;;;5076756;28;20201;-82
2021/09/23 11:00:55;;;;;;;18.20;11.23;;;23.60;99.90;;;;;;5076589;28;20231;-83
2021/09/23 11:03:32;;;;;;;16.10;10.83;;;22.80;99.90;;;;;;5076547;28;20196;-83
2021/09/23 11:06:06;;;;;;;18.13;12.13;;;22.50;99.90;;;;;;5076868;28;20195;-83
2021/09/23 11:08:38;;;;;;;17.37;10.63;;;22.30;99.90;;;;;;5076644;28;20227;-82
2021/09/23 11:11:08;;;;;;;16.60;10.20;;;22.30;99.90;;;;;;5076561;28;20206;-82
2021/09/23 11:13:37;;;;;;;15.38;9.95;;;22.10;99.90;;;;;;5076690;28;20207;-82
2021/09/23 11:16:06;;;;;;;15.40;10.37;;;21.70;99.90;;;;;;5076293;28;20218;-82
2021/09/23 11:18:35;;;;;;;16.57;10.93;;;21.40;99.90;;;;;;5076445;28;20205;-82
2021/09/23 11:21:03;;;;;;;16.53;10.10;;;21.90;99.90;;;;;;5076306;28;20257;-83
2021/09/23 11:23:31;;;;;;;18.03;10.47;;;22.70;99.90;;;;;;5076400;28;20282;-83
2021/09/23 11:25:58;;;;;;;16.83;8.87;;;23.40;99.90;;;;;;5076303;28;20226;-83
2021/09/23 11:28:26;;;;;;;11.43;7.10;;;23.20;99.90;;;;;;5076079;28;20215;-83
2021/09/23 11:30:54;;;;;;;11.13;6.90;;;22.80;99.90;;;;;;5076228;28;20299;-83
2021/09/23 11:33:22;;;;;;;12.48;6.50;;;23.10;99.90;;;;;;5076143;28;20203;-82
2021/09/23 11:35:52;;;;;;;10.65;6.93;;;23.40;99.90;;;;;;5076149;28;20199;-83
2021/09/23 11:38:23;;;;;;;11.75;6.30;;;23.30;99.90;;;;;;5076173;28;20200;-83
2021/09/23 11:40:52;;;;;;;9.17;6.63;;;23.60;99.90;;;;;;5075687;28;20227;-83
2021/09/23 11:43:21;;;;;;;10.38;6.55;;;24.00;99.90;;;;;;5075819;28;20238;-83
2021/09/23 11:45:53;;;;;;;22.17;8.27;;;24.20;99.90;;;;;;5075994;28;20211;-82
2021/09/23 11:48:24;;;;;;;11.10;8.15;;;24.40;99.90;;;;;;5075982;28;20230;-83
2021/09/23 11:50:56;;;;;;;11.13;7.97;;;24.40;99.90;;;;;;5075789;28;20586;-82
2021/09/23 11:53:25;;;;;;;16.27;8.52;;;24.70;99.90;;;;;;5075889;28;20288;-84
2021/09/23 11:55:59;;;;;;;11.23;8.10;;;24.00;99.90;;;;;;5075880;28;20206;-83
2021/09/23 11:58:26;;;;;;;12.32;8.70;;;23.80;99.90;;;;;;5075562;28;20195;-83
2021/09/23 12:00:54;;;;;;;12.35;8.65;;;24.20;99.90;;;;;;5075187;28;20223;-82
2021/09/23 12:03:22;;;;;;;8.68;7.05;;;23.90;99.90;;;;;;5075562;28;20290;-82
2021/09/23 12:05:52;;;;;;;11.30;7.43;;;23.60;99.90;;;;;;5075472;28;20298;-83
2021/09/23 12:08:21;;;;;;;10.98;7.80;;;23.60;99.90;;;;;;5075539;28;20210;-83
2021/09/23 12:10:51;;;;;;;11.70;7.55;;;23.40;99.90;;;;;;5075684;28;20286;-82
2021/09/23 12:13:24;;;;;;;9.13;7.20;;;23.00;99.90;;;;;;5075603;28;20290;-83
2021/09/23 12:15:53;;;;;;;10.43;6.80;;;22.50;99.90;;;;;;5075457;28;20229;-82
2021/09/23 12:18:23;;;;;;;7.65;6.18;;;22.60;99.90;;;;;;5075800;28;20291;-84
2021/09/23 12:20:52;;;;;;;10.02;6.63;;;22.70;99.90;;;;;;5075425;28;20227;-82
2021/09/23 12:23:24;;;;;;;8.90;6.82;;;22.70;99.90;;;;;;5075600;28;20690;-81
2021/09/23 12:26:18;;;;;;;13.10;7.13;;;22.90;99.90;;;;;;5068245;28;20557;-83
2021/09/23 12:28:58;;;;;;;11.07;7.45;;;23.00;99.90;;;;;;5072510;28;20680;-83
2021/09/23 12:31:34;;;;;;;9.90;6.70;;;23.00;99.90;;;;;;5055128;28;20253;-81